createdAt,value
2023-03-04T00:01:37.413Z,1.48
2023-03-04T00:06:59.170Z,1.08
2023-03-04T00:12:20.961Z,1.55
2023-03-04T00:17:42.757Z,1.08
2023-03-04T00:23:04.457Z,1.27
2023-03-04T00:28:26.157Z,1.20
2023-03-04T00:33:48.021Z,1.02
2023-03-04T00:39:09.767Z,0.93
2023-03-04T00:44:31.710Z,0.93
2023-03-04T00:49:53.511Z,1.00
2023-03-04T00:55:15.335Z,0.85
2023-03-04T01:00:37.121Z,0.98
2023-03-04T01:05:59.700Z,0.82
2023-03-04T01:11:21.807Z,0.90
2023-03-04T01:16:43.641Z,1.10
2023-03-04T01:22:05.509Z,1.10
2023-03-04T01:27:27.307Z,1.10
2023-03-04T01:32:49.095Z,0.98
2023-03-04T01:38:10.892Z,0.93
2023-03-04T01:43:33.021Z,1.10
2023-03-04T01:48:55.126Z,0.95
2023-03-04T01:54:17.300Z,1.25
2023-03-04T01:59:38.996Z,0.93
2023-03-04T02:05:00.805Z,1.00
2023-03-04T02:10:23.242Z,0.93
2023-03-04T02:15:48.121Z,0.93
2023-03-04T02:21:19.329Z,0.93
2023-03-04T02:26:43.736Z,0.88
2023-03-04T02:32:05.558Z,0.85
2023-03-04T02:37:27.342Z,0.95
2023-03-04T02:42:49.075Z,0.70
2023-03-04T02:48:12.170Z,0.98
2023-03-04T02:53:34.257Z,1.25
2023-03-04T02:58:55.999Z,1.30
2023-03-04T03:04:19.193Z,0.75
2023-03-04T03:09:40.922Z,1.08
2023-03-04T03:15:02.689Z,1.10
2023-03-04T03:20:24.450Z,1.20
2023-03-04T03:25:46.189Z,1.10
2023-03-04T03:31:08.231Z,1.20
2023-03-04T03:36:30.152Z,1.13
2023-03-04T03:41:51.941Z,1.10
2023-03-04T03:47:13.727Z,1.00
2023-03-04T03:52:35.564Z,1.02
2023-03-04T03:57:57.606Z,1.10
2023-03-04T04:03:19.532Z,1.17
2023-03-04T04:08:41.378Z,1.33
2023-03-04T04:14:03.222Z,1.05
2023-03-04T04:19:25.066Z,1.40
2023-03-04T04:24:47.605Z,1.05
2023-03-04T04:30:10.124Z,1.40
2023-03-04T04:35:33.380Z,1.00
2023-03-04T04:40:57.766Z,0.90
2023-03-04T04:46:19.726Z,1.48
2023-03-04T04:51:41.649Z,1.30
2023-03-04T04:57:03.592Z,1.02
2023-03-04T05:02:25.369Z,1.13
2023-03-04T05:07:47.163Z,1.13
2023-03-04T05:13:08.944Z,0.88
2023-03-04T05:18:31.249Z,1.20
2023-03-04T05:23:53.102Z,0.95
2023-03-04T05:29:14.854Z,1.10
2023-03-04T05:34:36.499Z,1.15
2023-03-04T05:39:58.221Z,1.20
2023-03-04T05:45:20.077Z,0.88
2023-03-04T05:50:41.835Z,0.68
2023-03-04T05:56:11.340Z,1.27
2023-03-04T06:01:33.122Z,0.98
2023-03-04T06:06:54.860Z,0.75
2023-03-04T06:12:16.798Z,0.52
2023-03-04T06:17:42.112Z,0.93
2023-03-04T06:23:04.752Z,1.00
2023-03-04T06:28:26.797Z,1.05
2023-03-04T06:33:48.884Z,0.70
2023-03-04T06:39:10.872Z,0.52
2023-03-04T06:44:32.801Z,0.70
2023-03-04T06:49:54.616Z,1.02
2023-03-04T06:55:16.471Z,1.10
2023-03-04T07:00:38.263Z,1.33
2023-03-04T07:05:59.995Z,1.20
2023-03-04T07:11:22.545Z,0.90
2023-03-04T07:16:44.309Z,1.13
2023-03-04T07:22:06.358Z,1.20
2023-03-04T07:27:28.118Z,1.25
2023-03-04T07:32:49.925Z,1.38
2023-03-04T07:38:11.837Z,1.33
2023-03-04T07:43:33.536Z,1.27
2023-03-04T07:48:56.701Z,1.38
2023-03-04T07:54:20.306Z,1.58
2023-03-04T07:59:42.041Z,1.00
2023-03-04T08:05:04.033Z,1.30
2023-03-04T08:10:25.753Z,1.00
2023-03-04T08:15:47.478Z,1.35
2023-03-04T08:21:11.487Z,0.90
2023-03-04T08:26:40.682Z,1.10
2023-03-04T08:32:02.750Z,1.13
2023-03-04T08:37:24.537Z,1.23
2023-03-04T08:42:46.252Z,1.33
2023-03-04T08:48:07.931Z,1.35
2023-03-04T08:53:29.656Z,1.48
2023-03-04T08:58:51.349Z,1.02
2023-03-04T09:04:13.225Z,1.15
2023-03-04T09:09:35.226Z,1.00
2023-03-04T09:15:10.154Z,1.17
2023-03-04T09:20:32.848Z,0.75
2023-03-04T09:25:54.754Z,1.40
2023-03-04T09:31:16.597Z,1.05
2023-03-04T09:36:38.448Z,0.95
2023-03-04T09:42:02.213Z,1.20
2023-03-04T09:47:26.618Z,1.08
2023-03-04T09:53:14.899Z,0.90
2023-03-04T09:59:03.991Z,0.80
2023-03-04T10:04:40.867Z,0.85
2023-03-04T10:10:10.579Z,0.93
2023-03-04T10:15:48.971Z,1.00
2023-03-04T10:21:21.344Z,0.77
2023-03-04T10:26:46.166Z,0.63
2023-03-04T10:32:13.704Z,1.17
2023-03-04T10:37:51.020Z,1.02
2023-03-04T10:43:15.811Z,0.70
2023-03-04T10:48:41.116Z,0.80
2023-03-04T10:54:31.627Z,1.08
2023-03-04T10:59:58.817Z,0.73
2023-03-04T11:05:26.673Z,0.70
2023-03-04T11:10:52.267Z,0.60
2023-03-04T11:21:51.237Z,0.88
2023-03-04T11:27:27.445Z,0.50
2023-03-04T11:38:21.125Z,0.70
2023-03-04T11:43:45.483Z,0.68
2023-03-04T11:49:09.907Z,0.73
2023-03-04T11:54:58.708Z,0.60
2023-03-04T12:00:57.371Z,0.40
2023-03-04T12:06:36.944Z,0.85
2023-03-04T12:12:35.799Z,0.95
2023-03-04T12:18:26.694Z,1.10
2023-03-04T12:23:48.395Z,4.45
2023-03-04T12:29:12.834Z,13.88
2023-03-04T12:34:55.684Z,9.95
2023-03-04T12:40:54.131Z,10.43
2023-03-04T12:46:21.868Z,10.15
2023-03-04T12:51:53.950Z,11.25
2023-03-04T12:57:21.375Z,8.93
2023-03-04T13:02:54.122Z,9.82
2023-03-04T13:08:37.427Z,8.52
2023-03-04T13:14:09.713Z,7.75
2023-03-04T13:19:51.039Z,6.50
2023-03-04T13:25:50.329Z,6.18
2023-03-04T13:31:18.574Z,4.50
2023-03-04T13:36:55.331Z,5.20
2023-03-04T13:42:40.595Z,5.00
2023-03-04T13:48:05.218Z,3.63
2023-03-04T13:54:00.557Z,3.20
2023-03-04T13:59:44.544Z,3.17
2023-03-04T14:05:07.180Z,2.90
2023-03-04T14:10:29.412Z,3.47
2023-03-04T14:15:56.609Z,2.95
2023-03-04T14:21:18.644Z,2.38
2023-03-04T14:26:40.816Z,2.38
2023-03-04T14:32:05.424Z,2.40
2023-03-04T14:37:34.329Z,2.27
2023-03-04T14:43:01.699Z,2.00
2023-03-04T14:48:30.480Z,2.08
2023-03-04T14:53:56.485Z,2.28
2023-03-04T14:59:18.174Z,1.73
2023-03-04T15:04:41.256Z,1.75
2023-03-04T15:10:07.245Z,2.10
2023-03-04T15:15:40.853Z,2.20
2023-03-04T15:21:26.888Z,3.45
2023-03-04T15:26:50.592Z,2.70
2023-03-04T15:32:12.387Z,2.75
2023-03-04T15:37:34.383Z,2.10
2023-03-04T15:42:58.125Z,2.15
2023-03-04T15:48:20.763Z,2.13
2023-03-04T15:53:46.375Z,1.80
2023-03-04T15:59:13.447Z,2.10
2023-03-04T16:04:35.298Z,1.77
2023-03-04T16:10:02.484Z,1.98
2023-03-04T16:15:27.392Z,1.77
2023-03-04T16:20:50.507Z,1.77
2023-03-04T16:26:21.144Z,1.50
2023-03-04T16:31:42.946Z,1.55
2023-03-04T16:37:12.456Z,1.95
2023-03-04T16:42:34.337Z,1.33
2023-03-04T16:47:56.579Z,1.10
2023-03-04T16:53:31.646Z,1.00
2023-03-04T16:58:57.051Z,1.10
2023-03-04T17:09:42.090Z,1.50
2023-03-04T17:15:04.497Z,0.95
2023-03-04T17:20:26.367Z,1.00
2023-03-04T17:25:56.167Z,0.70
2023-03-04T17:31:19.625Z,0.90
2023-03-04T17:36:41.492Z,0.52
2023-03-04T17:42:05.233Z,0.90
2023-03-04T17:47:27.115Z,1.40
2023-03-04T17:52:48.901Z,0.80
2023-03-04T17:58:11.464Z,1.13
2023-03-04T18:03:33.743Z,0.82
2023-03-04T18:08:55.805Z,1.05
2023-03-04T18:14:17.996Z,1.02
2023-03-04T18:19:40.154Z,1.42
2023-03-04T18:25:01.990Z,1.20
2023-03-04T18:30:27.422Z,1.25
2023-03-04T18:41:13.780Z,1.45
2023-03-04T18:46:48.150Z,1.00
2023-03-04T18:52:09.966Z,1.30
2023-03-04T18:57:31.927Z,1.73
2023-03-04T19:03:06.496Z,1.25
2023-03-04T19:08:29.074Z,1.35
2023-03-04T19:13:52.035Z,1.00
2023-03-04T19:19:15.297Z,0.88
2023-03-04T19:24:37.038Z,1.13
2023-03-04T19:29:58.801Z,1.20
2023-03-04T19:35:20.769Z,0.95
2023-03-04T19:40:43.621Z,1.10
2023-03-04T19:46:09.592Z,1.77
2023-03-04T19:51:32.977Z,1.30
2023-03-04T19:56:55.225Z,1.17
2023-03-04T20:02:17.248Z,0.85
2023-03-04T20:07:40.208Z,1.90
2023-03-04T20:13:02.010Z,2.63
2023-03-04T20:18:23.882Z,3.83
2023-03-04T20:23:45.598Z,2.47
2023-03-04T20:29:07.319Z,3.15
2023-03-04T20:34:29.052Z,3.40
2023-03-04T20:39:51.513Z,2.05
2023-03-04T20:45:13.225Z,2.10
2023-03-04T20:50:34.974Z,1.73
2023-03-04T20:56:03.750Z,1.35
2023-03-04T21:01:26.299Z,1.20
2023-03-04T21:06:48.665Z,1.95
2023-03-04T21:12:10.659Z,1.52
2023-03-04T21:17:32.394Z,1.40
2023-03-04T21:22:54.051Z,1.17
2023-03-04T21:28:16.195Z,1.17
2023-03-04T21:33:37.897Z,1.17
2023-03-04T21:38:59.624Z,1.17
2023-03-04T21:44:28.488Z,1.88
2023-03-04T21:49:55.174Z,0.95
2023-03-04T21:55:17.125Z,2.08
2023-03-04T22:00:39.291Z,1.35
2023-03-04T22:06:05.517Z,1.15
2023-03-04T22:11:31.083Z,1.00
2023-03-04T22:16:55.624Z,1.23
2023-03-04T22:22:19.134Z,0.90
2023-03-04T22:27:40.883Z,0.80
2023-03-04T22:33:03.215Z,0.68
2023-03-04T22:38:25.082Z,1.40
2023-03-04T22:43:47.847Z,0.50
2023-03-04T22:49:12.666Z,0.60
2023-03-04T22:54:34.489Z,0.70
2023-03-04T22:59:56.321Z,0.40
2023-03-04T23:05:21.071Z,0.80
2023-03-04T23:10:42.881Z,0.70
2023-03-04T23:16:08.233Z,0.47
2023-03-04T23:21:34.131Z,0.43
2023-03-04T23:26:56.024Z,0.50
2023-03-04T23:32:17.703Z,0.52
2023-03-04T23:37:39.543Z,0.45
2023-03-04T23:43:01.671Z,0.30
2023-03-04T23:48:23.389Z,0.40
2023-03-04T23:53:45.943Z,0.30
2023-03-04T23:59:08.105Z,0.43
